Time;durP1;ratioP1;P1;durP2;ratioP2;P2;SDS_P1;SDS_P2;PMS_P1;PMS_P2;Temp;Humidity;BMP_temperature;BMP_pressure;BME280_temperature;BME280_humidity;BME280_pressure;Samples;Min_cycle;Max_cycle;Signal;HPM_P1;HPM_P2
2022/02/24 00:00:15;;;;;;;14.20;7.17;;;;;;;16.24;37.56;99860.38;1698967;80;21463;-55
2022/02/24 00:02:44;;;;;;;10.78;6.78;;;;;;;16.28;37.62;99860.07;1715674;82;21416;-55
2022/02/24 00:05:11;;;;;;;14.70;7.50;;;;;;;16.33;37.58;99862.42;1709341;80;21480;-55
2022/02/24 00:07:38;;;;;;;9.60;6.22;;;;;;;16.44;37.52;99863.08;1704448;82;22029;-55
2022/02/24 00:10:08;;;;;;;10.63;6.95;;;;;;;16.47;37.36;99864.22;1702602;80;21433;-56
2022/02/24 00:12:38;;;;;;;11.45;7.20;;;;;;;16.44;37.39;99857.28;1710623;80;21033;-55
2022/02/24 00:15:05;;;;;;;;;;;;;;;16.39;37.37;99863.38;1712370;82;21527;-55
2022/02/24 00:17:33;;;;;;;9.63;6.00;;;;;;;16.49;37.49;99856.52;1714213;80;20439;-55
2022/02/24 00:19:59;;;;;;;13.33;7.20;;;;;;;16.62;37.27;99859.25;1707840;82;21806;-55
2022/02/24 00:22:27;;;;;;;9.00;6.85;;;;;;;16.68;37.08;99864.64;1722117;82;21606;-55
2022/02/24 00:24:54;;;;;;;15.28;7.95;;;;;;;16.67;37.03;99866.45;1711906;80;21570;-55
2022/02/24 00:27:21;;;;;;;10.32;7.08;;;;;;;16.30;37.41;99859.98;1701241;82;21692;-55
2022/02/24 00:29:49;;;;;;;10.80;6.60;;;;;;;16.33;37.65;99863.30;1709146;82;21776;-55
2022/02/24 00:32:16;;;;;;;12.73;7.23;;;;;;;16.73;37.02;99870.03;1733747;80;22046;-55
2022/02/24 00:34:43;;;;;;;10.18;6.22;;;;;;;16.64;37.19;99872.43;1731065;80;21408;-55
2022/02/24 00:37:09;;;;;;;14.13;7.40;;;;;;;16.55;37.24;99871.20;1727181;81;21025;-55
2022/02/24 00:39:36;;;;;;;12.43;7.08;;;;;;;16.54;37.15;99870.36;1728277;81;21455;-55
2022/02/24 00:42:03;;;;;;;9.60;7.03;;;;;;;16.45;37.29;99866.96;1723844;80;21451;-55
2022/02/24 00:44:31;;;;;;;15.65;7.37;;;;;;;16.50;37.17;99873.30;1732640;81;21784;-55
2022/02/24 00:46:58;;;;;;;10.53;6.83;;;;;;;16.23;37.63;99880.72;1719736;81;21583;-57
2022/02/24 00:49:24;;;;;;;9.78;6.80;;;;;;;16.35;37.63;99875.98;1727960;81;21627;-55
2022/02/24 00:51:51;;;;;;;11.70;7.62;;;;;;;16.08;37.96;99879.03;1727989;81;20983;-55
2022/02/24 00:54:18;;;;;;;15.25;7.35;;;;;;;16.16;37.87;99880.72;1733557;80;21529;-55
2022/02/24 00:56:44;;;;;;;10.43;6.78;;;;;;;16.18;37.77;99882.84;1730509;80;21868;-55
2022/02/24 00:59:13;;;;;;;10.70;7.20;;;;;;;16.24;37.74;99882.92;1725619;80;21519;-55
2022/02/24 01:01:39;;;;;;;12.05;7.45;;;;;;;16.43;37.54;99882.13;1730518;80;21064;-55
2022/02/24 01:04:06;;;;;;;12.28;7.37;;;;;;;16.57;37.41;99887.03;1720312;81;21424;-55
2022/02/24 01:06:33;;;;;;;11.88;7.87;;;;;;;16.58;37.33;99894.91;1736678;80;21442;-55
2022/02/24 01:08:59;;;;;;;9.85;7.85;;;;;;;16.50;37.37;99900.70;1733358;81;22164;-55
2022/02/24 01:11:26;;;;;;;11.33;7.17;;;;;;;16.47;37.28;99900.05;1725748;80;21665;-54
2022/02/24 01:13:53;;;;;;;12.78;7.60;;;;;;;16.44;37.40;99902.87;1728594;81;21467;-55
2022/02/24 01:16:20;;;;;;;11.63;7.08;;;;;;;16.46;37.37;99900.53;1724973;80;21506;-55
2022/02/24 01:18:47;;;;;;;12.20;7.35;;;;;;;16.43;37.60;99903.84;1731498;80;21918;-55
2022/02/24 01:21:13;;;;;;;10.72;7.47;;;;;;;16.55;37.36;99904.38;1723059;80;21713;-55
2022/02/24 01:23:40;;;;;;;11.08;7.75;;;;;;;16.52;37.23;99903.27;1723282;80;21580;-55
2022/02/24 01:26:07;;;;;;;13.78;8.53;;;;;;;16.47;37.30;99902.22;1730473;81;21053;-55
2022/02/24 01:28:34;;;;;;;;;;;;;;;16.41;37.22;99899.11;1737630;80;21458;-55
2022/02/24 01:31:01;;;;;;;9.70;7.35;;;;;;;16.38;37.36;99900.14;1720087;80;20149;-55
2022/02/24 01:33:28;;;;;;;11.68;7.50;;;;;;;16.47;37.36;99905.36;1703265;82;21993;-55
2022/02/24 01:35:54;;;;;;;13.70;7.75;;;;;;;16.52;37.22;99899.28;1708505;80;21499;-55
2022/02/24 01:38:21;;;;;;;12.45;8.40;;;;;;;16.58;37.16;99900.70;1716596;80;21581;-55
2022/02/24 01:40:48;;;;;;;11.70;8.03;;;;;;;16.55;37.07;99897.27;1717016;82;21456;-55
2022/02/24 01:43:14;;;;;;;12.35;8.03;;;;;;;16.53;37.05;99895.67;1705378;82;21480;-55
2022/02/24 01:45:41;;;;;;;11.05;7.25;;;;;;;16.55;37.08;99901.73;1708978;80;21428;-55
2022/02/24 01:48:08;;;;;;;11.03;7.78;;;;;;;16.61;37.12;99904.47;1713181;82;21428;-55
2022/02/24 01:50:36;;;;;;;13.03;8.30;;;;;;;16.68;36.98;99904.46;1713328;82;21003;-55
2022/02/24 01:53:05;;;;;;;9.73;7.67;;;;;;;16.56;36.96;99904.77;1701318;80;21030;-55
2022/02/24 01:55:31;;;;;;;11.35;9.38;;;;;;;16.57;36.98;99905.62;1715567;80;21539;-55
2022/02/24 01:57:58;;;;;;;15.23;10.53;;;;;;;16.62;36.81;99912.34;1711325;82;22041;-55
2022/02/24 02:00:25;;;;;;;13.00;8.58;;;;;;;16.69;36.79;99908.34;1707293;82;21059;-55
2022/02/24 02:02:51;;;;;;;14.00;8.48;;;;;;;16.79;36.77;99913.07;1715331;82;21567;-55
2022/02/24 02:05:19;;;;;;;12.80;8.53;;;;;;;16.85;36.74;99920.67;1713664;80;21502;-55
2022/02/24 02:07:45;;;;;;;14.23;8.48;;;;;;;16.87;36.59;99921.42;1701144;82;21496;-55
2022/02/24 02:10:12;;;;;;;11.30;7.87;;;;;;;16.88;36.54;99921.33;1715143;80;21832;-55
2022/02/24 02:12:50;;;;;;;10.05;7.72;;;;;;;16.81;36.51;99927.94;1705201;81;20975;-55
2022/02/24 02:15:17;;;;;;;8.90;7.22;;;;;;;16.71;36.75;99930.34;1710545;82;21566;-55
2022/02/24 02:17:45;;;;;;;11.33;8.78;;;;;;;16.67;36.95;99931.94;1701826;80;21019;-55
2022/02/24 02:20:12;;;;;;;13.22;8.70;;;;;;;16.65;37.06;99933.84;1712457;80;21423;-55
2022/02/24 02:22:39;;;;;;;9.83;8.73;;;;;;;16.56;37.13;99935.30;1708503;81;22102;-55
2022/02/24 02:25:07;;;;;;;;;;;;;;;16.58;37.10;99935.20;1711542;82;21519;-55
2022/02/24 02:27:34;;;;;;;10.60;7.95;;;;;;;16.56;37.10;99941.94;1704971;80;20515;-55
2022/02/24 02:30:01;;;;;;;10.55;7.55;;;;;;;16.58;37.22;99945.83;1711421;82;27059;-55
2022/02/24 02:32:28;;;;;;;13.05;9.23;;;;;;;16.56;37.21;99944.59;1708303;82;20999;-55
2022/02/24 02:34:55;;;;;;;13.62;9.48;;;;;;;16.62;37.18;99944.19;1706956;82;21786;-55
2022/02/24 02:37:22;;;;;;;13.08;9.68;;;;;;;16.62;37.16;99948.17;1717399;82;21011;-55
2022/02/24 02:39:49;;;;;;;14.90;8.68;;;;;;;16.57;37.20;99957.38;1717884;80;21534;-55
2022/02/24 02:42:15;;;;;;;13.03;9.18;;;;;;;16.52;37.22;99956.35;1712587;80;21456;-56
2022/02/24 02:44:42;;;;;;;13.98;9.23;;;;;;;16.57;37.32;99964.02;1705085;82;21444;-55
2022/02/24 02:47:09;;;;;;;12.63;9.63;;;;;;;16.64;37.39;99962.20;1710408;80;21868;-55
2022/02/24 02:49:38;;;;;;;15.23;9.00;;;;;;;16.69;37.33;99964.58;1712331;82;21638;-55
2022/02/24 02:52:06;;;;;;;15.35;9.98;;;;;;;16.72;37.27;99963.05;1706454;82;21558;-55
2022/02/24 02:54:33;;;;;;;13.20;9.73;;;;;;;16.48;37.50;99965.42;1718086;82;21432;-55
2022/02/24 02:57:01;;;;;;;14.33;9.33;;;;;;;16.48;37.70;99968.95;1709765;80;21579;-55
2022/02/24 02:59:28;;;;;;;12.05;9.03;;;;;;;16.49;37.78;99969.32;1704900;80;21885;-55
2022/02/24 03:01:55;;;;;;;12.10;8.13;;;;;;;16.63;37.71;99975.11;1713999;80;21468;-56
2022/02/24 03:04:22;;;;;;;12.33;9.53;;;;;;;16.74;37.47;99978.40;1701483;82;21524;-55
2022/02/24 03:06:49;;;;;;;14.10;8.93;;;;;;;16.79;37.32;99980.30;1715426;80;21460;-55
2022/02/24 03:09:16;;;;;;;12.30;8.90;;;;;;;16.81;37.23;99981.53;1715686;80;21022;-55
2022/02/24 03:11:43;;;;;;;12.10;9.70;;;;;;;16.85;37.14;99987.89;1700784;82;22053;-55
2022/02/24 03:14:09;;;;;;;13.10;8.30;;;;;;;16.89;37.09;99977.45;1711758;80;21538;-55
2022/02/24 03:16:36;;;;;;;12.68;8.53;;;;;;;16.97;37.08;99982.75;1700424;82;21566;-55
2022/02/24 03:19:03;;;;;;;12.05;8.25;;;;;;;16.98;37.01;99981.33;1703860;82;21475;-54
2022/02/24 03:21:29;;;;;;;14.45;9.33;;;;;;;16.96;36.99;99989.03;1720298;80;21065;-55
2022/02/24 03:23:56;;;;;;;13.20;9.15;;;;;;;16.90;36.93;99993.78;1716861;80;22165;-55
2022/02/24 03:26:23;;;;;;;10.65;8.38;;;;;;;16.91;36.82;99993.30;1716581;80;21412;-55
2022/02/24 03:28:49;;;;;;;9.95;7.62;;;;;;;16.85;37.03;99994.53;1720147;80;21124;-57
2022/02/24 03:31:17;;;;;;;10.63;7.33;;;;;;;16.87;37.10;100001.08;1718943;80;21907;-55
2022/02/24 03:33:43;;;;;;;12.60;8.28;;;;;;;16.89;37.15;99996.04;1705755;80;21546;-55
2022/02/24 03:36:11;;;;;;;11.75;8.50;;;;;;;16.90;37.12;100003.55;1666612;82;21880;-56
2022/02/24 03:38:37;;;;;;;;;;;;;;;16.97;37.02;100004.88;1691832;81;21515;-55
2022/02/24 03:41:04;;;;;;;12.70;7.35;;;;;;;16.84;37.24;100002.59;1709506;81;20430;-55
2022/02/24 03:43:31;;;;;;;9.40;7.33;;;;;;;16.77;37.25;100009.23;1719352;80;21487;-56
2022/02/24 03:45:57;;;;;;;10.15;7.97;;;;;;;16.85;37.26;100006.97;1722453;80;21113;-56
2022/02/24 03:48:25;;;;;;;14.18;8.38;;;;;;;16.94;37.22;100007.72;1714616;80;21778;-56
2022/02/24 03:50:52;;;;;;;9.15;8.00;;;;;;;17.01;37.03;100004.18;1713351;81;21011;-56
2022/02/24 03:53:19;;;;;;;15.60;7.40;;;;;;;16.91;37.03;100003.47;1713708;80;21601;-55
2022/02/24 03:55:46;;;;;;;10.85;7.90;;;;;;;16.83;37.01;100004.89;1708363;80;21859;-55
2022/02/24 03:58:13;;;;;;;12.60;7.80;;;;;;;16.79;37.05;99999.37;1708106;80;21685;-56
2022/02/24 04:00:40;;;;;;;9.93;7.53;;;;;;;16.80;37.12;100004.59;1699676;82;21807;-55
2022/02/24 04:03:07;;;;;;;11.55;8.00;;;;;;;16.76;37.08;100001.72;1713545;82;20971;-58
2022/02/24 04:05:33;;;;;;;11.73;8.40;;;;;;;16.58;37.10;100004.22;1711741;80;21467;-55
2022/02/24 04:08:00;;;;;;;8.20;7.37;;;;;;;16.54;37.05;99999.09;1715679;80;21555;-56
2022/02/24 04:10:28;;;;;;;9.35;7.25;;;;;;;16.42;37.09;100010.93;1713233;82;21670;-56
2022/02/24 04:12:56;;;;;;;10.65;7.83;;;;;;;16.40;37.12;100005.70;1710821;82;21408;-56
2022/02/24 04:15:23;;;;;;;11.78;8.60;;;;;;;16.41;37.16;100011.89;1701433;82;21555;-55
2022/02/24 04:17:49;;;;;;;8.05;7.10;;;;;;;16.43;37.13;100022.78;1702244;81;21571;-55
2022/02/24 04:20:17;;;;;;;11.80;8.15;;;;;;;15.95;37.64;100030.95;1646092;84;21530;-56
2022/02/24 04:22:44;;;;;;;12.15;8.93;;;;;;;15.86;37.81;100035.47;1719215;80;21617;-55
2022/02/24 04:25:11;;;;;;;12.90;8.85;;;;;;;15.84;37.83;100042.66;1708911;82;22042;-55
2022/02/24 04:27:49;;;;;;;12.73;8.90;;;;;;;15.81;37.96;100048.61;1711386;82;21042;-55
2022/02/24 04:30:17;;;;;;;11.57;9.40;;;;;;;15.93;37.96;100040.77;1717352;80;21601;-55
2022/02/24 04:32:43;;;;;;;12.33;9.58;;;;;;;15.99;38.08;100050.16;1723872;81;20979;-55
2022/02/24 04:35:11;;;;;;;13.30;10.15;;;;;;;16.27;37.88;100050.70;1739447;80;21510;-56
2022/02/24 04:37:38;;;;;;;13.35;9.35;;;;;;;15.86;38.38;100055.35;1734073;80;21522;-56
2022/02/24 04:40:06;;;;;;;14.53;9.20;;;;;;;15.92;38.35;100061.62;1737763;80;21415;-57
2022/02/24 04:42:33;;;;;;;12.03;9.23;;;;;;;16.11;38.19;100064.52;1734651;80;21412;-56
2022/02/24 04:45:00;;;;;;;13.88;8.38;;;;;;;16.14;38.12;100070.50;1729102;80;21045;-56
2022/02/24 04:47:27;;;;;;;12.80;9.40;;;;;;;16.05;38.53;100074.14;1732235;80;21037;-57
2022/02/24 04:49:54;;;;;;;10.68;8.58;;;;;;;15.87;38.82;100082.72;1726521;81;21761;-56
2022/02/24 04:52:21;;;;;;;13.58;9.38;;;;;;;15.82;38.70;100079.47;1734524;80;21573;-55
2022/02/24 04:54:47;;;;;;;10.80;8.98;;;;;;;15.94;38.64;100086.25;1720355;81;21551;-55
2022/02/24 04:57:14;;;;;;;11.97;8.73;;;;;;;15.64;39.15;100092.80;1733911;80;21443;-56
2022/02/24 04:59:41;;;;;;;12.25;8.80;;;;;;;15.73;39.24;100093.64;1729408;80;21570;-56
2022/02/24 05:02:08;;;;;;;12.23;9.43;;;;;;;15.71;39.19;100102.13;1736080;80;21676;-56
2022/02/24 05:04:35;;;;;;;14.18;9.20;;;;;;;15.71;39.19;100102.13;1738342;80;21940;-55
2022/02/24 05:07:03;;;;;;;11.10;9.53;;;;;;;15.77;39.15;100103.61;1725416;81;21558;-55
2022/02/24 05:10:00;;;;;;;12.93;9.68;;;;;;;15.74;39.07;100106.42;1732320;80;21506;-56
2022/02/24 05:12:28;;;;;;;;;;;;;;;15.74;39.15;100110.39;1674895;83;21506;-55
2022/02/24 05:14:55;;;;;;;12.77;9.73;;;;;;;15.78;39.31;100115.05;1707470;82;21803;-54
2022/02/24 05:17:22;;;;;;;16.97;9.57;;;;;;;15.81;39.13;100117.06;1713989;82;21077;-56
2022/02/24 05:19:48;;;;;;;14.03;10.25;;;;;;;15.86;39.03;100118.11;1708097;81;21610;-55
2022/02/24 05:22:15;;;;;;;11.53;9.30;;;;;;;15.88;39.01;100120.20;1707480;82;21449;-56
2022/02/24 05:24:42;;;;;;;14.13;10.28;;;;;;;15.94;39.01;100135.30;1710513;81;21495;-57
2022/02/24 05:27:08;;;;;;;15.00;10.70;;;;;;;16.06;39.02;100133.73;1702414;81;21853;-56
2022/02/24 05:29:35;;;;;;;14.98;10.88;;;;;;;16.20;38.89;100137.38;1704621;83;21452;-55
2022/02/24 05:32:03;;;;;;;14.97;12.37;;;;;;;16.23;38.80;100147.83;1711926;82;21433;-55
2022/02/24 05:34:30;;;;;;;;;;;;;;;16.24;38.72;100151.72;1653002;84;21567;-56
2022/02/24 05:36:56;;;;;;;13.80;10.90;;;;;;;16.22;38.90;100160.69;1663926;84;20464;-55
2022/02/24 05:39:23;;;;;;;13.22;10.38;;;;;;;16.14;38.85;100160.69;1671227;84;21916;-55
2022/02/24 05:41:49;;;;;;;14.75;11.33;;;;;;;16.19;38.90;100155.59;1668544;83;21136;-56
2022/02/24 05:45:43;;;;;;;17.87;10.60;;;;;;;14.13;43.96;100173.52;1794303;78;22484;-56
2022/02/24 05:48:11;;;;;;;15.40;11.35;;;;;;;16.28;39.07;100171.82;1760561;80;21466;-57
2022/02/24 05:50:39;;;;;;;16.30;10.70;;;;;;;16.30;38.92;100175.23;1754760;80;21775;-55
2022/02/24 05:53:06;;;;;;;13.70;10.28;;;;;;;16.32;38.79;100177.33;1751430;80;21479;-55
2022/02/24 05:55:33;;;;;;;13.22;9.93;;;;;;;16.42;38.78;100185.59;1761797;80;21447;-55
2022/02/24 05:58:00;;;;;;;11.45;10.18;;;;;;;16.55;38.75;100191.05;1706146;81;21002;-54
2022/02/24 06:00:27;;;;;;;14.60;10.68;;;;;;;16.53;38.79;100191.13;1699095;83;21581;-54
2022/02/24 06:02:55;;;;;;;13.43;10.08;;;;;;;16.55;38.68;100189.72;1710341;82;21835;-54
2022/02/24 06:05:21;;;;;;;12.37;9.75;;;;;;;16.51;38.70;100193.03;1709985;82;21478;-55
2022/02/24 06:07:48;;;;;;;10.63;9.05;;;;;;;16.40;38.94;100202.09;1707237;82;21578;-54
2022/02/24 06:10:15;;;;;;;10.05;9.00;;;;;;;16.40;39.10;100210.05;1711412;82;21447;-55
2022/02/24 06:12:42;;;;;;;10.35;9.13;;;;;;;16.46;39.01;100210.16;1713230;82;21514;-54
2022/02/24 06:15:10;;;;;;;9.90;8.80;;;;;;;16.37;39.05;100216.87;1709331;82;21616;-55
2022/02/24 06:17:38;;;;;;;13.25;7.97;;;;;;;16.74;38.59;100217.36;1704146;82;21580;-55
2022/02/24 06:20:07;;;;;;;10.18;7.95;;;;;;;16.39;38.88;100216.31;1710865;82;21581;-55
2022/02/24 06:22:34;;;;;;;9.23;8.33;;;;;;;16.35;39.22;100218.29;1705787;82;21487;-55
2022/02/24 06:25:01;;;;;;;8.35;7.55;;;;;;;16.60;39.14;100218.67;1709919;82;21577;-55
2022/02/24 06:27:28;;;;;;;13.10;8.63;;;;;;;16.68;38.94;100223.89;1708948;82;22098;-55
2022/02/24 06:29:55;;;;;;;11.30;8.33;;;;;;;16.60;38.87;100227.96;1705437;82;21647;-56
2022/02/24 06:32:21;;;;;;;12.53;8.30;;;;;;;16.53;38.94;100230.10;1706673;82;21499;-54
2022/02/24 06:34:48;;;;;;;9.93;8.05;;;;;;;16.54;38.88;100226.03;1713769;82;21596;-55
2022/02/24 06:37:15;;;;;;;10.03;8.38;;;;;;;16.59;38.92;100228.89;1702019;82;21005;-55
2022/02/24 06:39:42;;;;;;;10.40;8.67;;;;;;;16.67;38.88;100231.48;1709610;82;21773;-56
2022/02/24 06:42:09;;;;;;;11.08;8.83;;;;;;;16.64;38.88;100240.95;1698793;82;27126;-56
2022/02/24 06:44:35;;;;;;;11.03;8.70;;;;;;;16.62;38.71;100238.86;1702148;82;21448;-56
2022/02/24 06:47:03;;;;;;;10.13;8.70;;;;;;;16.62;38.64;100240.67;1691033;83;21539;-56
2022/02/24 06:49:29;;;;;;;8.90;7.92;;;;;;;16.60;38.74;100247.87;1696600;83;21566;-56
2022/02/24 06:51:57;;;;;;;11.00;8.48;;;;;;;16.57;38.86;100252.86;1695824;83;21803;-55
2022/02/24 06:54:25;;;;;;;10.23;8.33;;;;;;;16.65;38.77;100253.30;1690586;83;21136;-56
2022/02/24 06:56:52;;;;;;;9.28;8.30;;;;;;;16.79;38.55;100260.92;1693092;83;21500;-55
2022/02/24 06:59:19;;;;;;;11.57;8.70;;;;;;;16.90;38.34;100262.02;1700001;83;21069;-56
2022/02/24 07:01:46;;;;;;;8.95;8.03;;;;;;;16.92;38.26;100261.45;1694708;83;21538;-55
2022/02/24 07:04:13;;;;;;;10.63;8.03;;;;;;;16.98;38.32;100267.36;1750828;80;21820;-56
2022/02/24 07:06:40;;;;;;;9.30;8.38;;;;;;;17.14;38.20;100268.16;1743549;80;21073;-55
2022/02/24 07:09:07;;;;;;;9.87;8.30;;;;;;;17.24;37.97;100264.46;1758347;80;21447;-58
2022/02/24 07:11:33;;;;;;;13.43;8.68;;;;;;;17.22;37.80;100265.88;1751203;80;21001;-56
2022/02/24 07:14:01;;;;;;;10.63;8.30;;;;;;;17.21;37.76;100277.92;1747684;80;21034;-55
2022/02/24 07:16:28;;;;;;;9.45;7.20;;;;;;;17.13;37.84;100276.58;1743734;80;21901;-55
2022/02/24 07:18:55;;;;;;;9.38;8.33;;;;;;;17.20;37.88;100274.91;1741234;80;21124;-55
2022/02/24 07:21:22;;;;;;;10.70;7.85;;;;;;;17.27;37.91;100275.77;1745585;80;21506;-55
2022/02/24 07:23:48;;;;;;;9.33;8.30;;;;;;;17.30;37.73;100285.34;1746262;80;21629;-55
2022/02/24 07:26:15;;;;;;;12.68;8.93;;;;;;;17.26;37.75;100287.33;1747897;80;21511;-54
2022/02/24 07:28:43;;;;;;;8.93;8.00;;;;;;;17.25;37.66;100290.07;1749892;80;21439;-55
2022/02/24 07:31:15;;;;;;;10.65;8.28;;;;;;;17.13;37.74;100291.19;1744568;80;21451;-56
2022/02/24 07:33:42;;;;;;;9.38;7.20;;;;;;;17.15;37.88;100291.10;1748667;80;20979;-56
2022/02/24 07:36:08;;;;;;;7.72;6.97;;;;;;;17.30;37.97;100299.95;1745207;80;21534;-57
2022/02/24 07:38:35;;;;;;;8.73;7.35;;;;;;;17.43;37.79;100296.09;1747632;80;21041;-56
2022/02/24 07:41:02;;;;;;;10.30;8.60;;;;;;;17.50;37.57;100302.75;1746235;80;21744;-56
2022/02/24 07:43:28;;;;;;;9.85;8.05;;;;;;;17.50;37.57;100302.75;1752820;80;22021;-56
2022/02/24 07:45:55;;;;;;;8.93;7.87;;;;;;;17.57;37.47;100305.38;1749349;80;21443;-56
2022/02/24 07:48:22;;;;;;;9.08;7.62;;;;;;;17.58;37.44;100306.26;1751096;80;21514;-56
2022/02/24 07:50:48;;;;;;;9.33;7.70;;;;;;;17.60;37.44;100305.20;1746551;80;21127;-56
2022/02/24 07:53:15;;;;;;;12.05;7.58;;;;;;;17.65;37.25;100308.45;1747406;80;22157;-54
2022/02/24 07:55:43;;;;;;;9.60;7.58;;;;;;;17.82;36.90;100313.17;1745591;80;21450;-55
2022/02/24 07:58:10;;;;;;;9.10;8.20;;;;;;;17.72;37.01;100314.22;1759465;80;20951;-54
2022/02/24 08:00:37;;;;;;;8.38;7.37;;;;;;;17.77;36.95;100319.27;1751663;80;21525;-54
2022/02/24 08:03:04;;;;;;;8.33;7.45;;;;;;;17.59;37.35;100318.59;1750253;80;21057;-55
2022/02/24 08:05:32;;;;;;;9.80;7.87;;;;;;;17.42;37.89;100328.47;1746266;80;21764;-55
2022/02/24 08:07:59;;;;;;;8.00;7.20;;;;;;;17.44;37.88;100333.67;1728549;82;21557;-55
2022/02/24 08:10:26;;;;;;;8.55;7.75;;;;;;;17.66;37.57;100331.89;1741775;80;21566;-55
2022/02/24 08:12:52;;;;;;;10.10;8.83;;;;;;;17.73;37.94;100331.91;1751692;80;21507;-55
2022/02/24 08:15:21;;;;;;;9.73;8.35;;;;;;;17.87;37.34;100331.07;1753098;80;21491;-55
2022/02/24 08:17:50;;;;;;;10.35;8.23;;;;;;;17.49;37.94;100339.09;1754067;80;21538;-55
2022/02/24 08:20:16;;;;;;;10.20;7.53;;;;;;;17.21;38.50;100337.71;1756300;80;21554;-55
2022/02/24 08:22:47;;;;;;;8.13;7.33;;;;;;;17.18;39.94;100339.21;1752885;80;21432;-55
2022/02/24 08:25:16;;;;;;;9.13;8.23;;;;;;;17.19;38.86;100342.27;1748235;80;21558;-56
2022/02/24 08:27:44;;;;;;;10.03;8.33;;;;;;;17.19;38.88;100337.80;1751472;80;21487;-55
2022/02/24 08:30:14;;;;;;;7.87;7.08;;;;;;;17.11;38.62;100342.23;1755384;80;23079;-55
2022/02/24 08:32:41;;;;;;;8.75;7.95;;;;;;;17.11;38.93;100346.22;1743993;80;21022;-55
2022/02/24 08:35:10;;;;;;;8.00;7.17;;;;;;;17.19;39.05;100346.25;1745566;80;21598;-55
2022/02/24 08:37:36;;;;;;;7.70;7.00;;;;;;;17.31;39.46;100343.73;1748027;80;21746;-55
2022/02/24 08:40:04;;;;;;;9.30;7.95;;;;;;;17.46;38.31;100353.03;1746544;80;21518;-55
2022/02/24 08:42:32;;;;;;;12.47;9.80;;;;;;;17.46;38.31;100353.03;1754497;80;21805;-55
2022/02/24 08:44:58;;;;;;;8.35;7.55;;;;;;;17.44;38.04;100350.95;1759863;80;21580;-55
2022/02/24 08:47:25;;;;;;;8.65;7.75;;;;;;;17.46;38.04;100353.03;1756983;80;21553;-54
2022/02/24 08:49:52;;;;;;;10.38;7.60;;;;;;;17.50;37.99;100358.58;1757549;80;21507;-54
2022/02/24 08:52:18;;;;;;;8.18;7.20;;;;;;;17.60;37.93;100359.72;1759679;80;21411;-55
2022/02/24 08:54:46;;;;;;;7.00;6.28;;;;;;;17.69;37.76;100355.65;1761520;80;21405;-54
2022/02/24 08:57:13;;;;;;;7.25;6.55;;;;;;;17.89;37.54;100353.11;1752776;80;21017;-55
2022/02/24 08:59:40;;;;;;;7.00;6.37;;;;;;;17.96;37.40;100348.27;1757232;80;21001;-55
2022/02/24 09:02:08;;;;;;;7.15;6.35;;;;;;;18.00;37.31;100351.96;1759553;80;21551;-55
2022/02/24 09:04:34;;;;;;;7.45;6.80;;;;;;;18.10;37.17;100349.58;1773563;80;20919;-55
2022/02/24 09:07:03;;;;;;;7.30;6.60;;;;;;;18.18;36.94;100349.12;1760766;80;21987;-55
2022/02/24 09:09:31;;;;;;;7.22;6.53;;;;;;;18.14;36.96;100350.23;1762559;80;21696;-56
2022/02/24 09:11:59;;;;;;;6.75;6.10;;;;;;;18.31;36.62;100353.16;1768215;80;21021;-55
2022/02/24 09:14:25;;;;;;;7.62;6.67;;;;;;;18.38;36.73;100351.34;1764994;80;21570;-56
2022/02/24 09:16:54;;;;;;;6.15;5.35;;;;;;;18.36;36.80;100353.73;1764896;80;21565;-56
2022/02/24 09:19:21;;;;;;;6.97;6.28;;;;;;;18.33;36.58;100357.91;1769854;80;21778;-56
2022/02/24 09:21:48;;;;;;;6.80;6.20;;;;;;;18.41;36.39;100355.14;1759885;80;21522;-56
2022/02/24 09:24:14;;;;;;;5.97;5.47;;;;;;;18.47;36.22;100352.56;1759304;80;21493;-55
2022/02/24 09:26:42;;;;;;;8.97;7.67;;;;;;;18.43;36.27;100351.91;1763040;80;21675;-56
2022/02/24 09:29:09;;;;;;;8.33;7.47;;;;;;;18.72;36.09;100350.97;1757369;80;21619;-55
2022/02/24 09:31:38;;;;;;;7.97;6.97;;;;;;;18.84;35.94;100353.72;1767252;80;21786;-56
2022/02/24 09:34:04;;;;;;;6.55;5.95;;;;;;;18.94;35.68;100351.78;1761721;80;21002;-55
2022/02/24 09:36:31;;;;;;;6.42;5.17;;;;;;;18.85;35.47;100347.91;1769260;80;21617;-56
2022/02/24 09:38:58;;;;;;;6.53;5.92;;;;;;;18.64;35.42;100355.47;1768015;80;21540;-55
2022/02/24 09:41:26;;;;;;;6.40;5.80;;;;;;;18.54;35.51;100351.70;1763522;80;21585;-56
2022/02/24 09:43:53;;;;;;;7.20;5.62;;;;;;;18.70;35.35;100348.88;1763747;80;21971;-55
2022/02/24 09:46:20;;;;;;;6.92;6.25;;;;;;;18.86;35.12;100346.47;1750137;80;21518;-56
2022/02/24 09:48:47;;;;;;;6.30;5.70;;;;;;;18.86;34.87;100349.63;1747914;80;21480;-54
2022/02/24 09:51:17;;;;;;;7.90;6.28;;;;;;;18.99;34.41;100349.19;1739313;80;22110;-55
2022/02/24 09:53:45;;;;;;;7.55;5.90;;;;;;;18.77;34.62;100351.53;1748116;80;21510;-55
2022/02/24 09:56:21;;;;;;;6.67;5.55;;;;;;;18.68;34.79;100351.19;1749883;80;22190;-55
2022/02/24 09:58:48;;;;;;;5.00;4.55;;;;;;;18.71;34.87;100352.78;1742959;80;21573;-56
2022/02/24 10:01:17;;;;;;;7.60;5.40;;;;;;;18.76;34.87;100341.81;1742262;80;21031;-55
2022/02/24 10:03:46;;;;;;;5.67;5.12;;;;;;;18.78;34.51;100349.22;1752156;80;21578;-55
2022/02/24 10:06:14;;;;;;;6.42;5.05;;;;;;;18.79;34.66;100350.95;1747384;80;21530;-55
2022/02/24 10:08:45;;;;;;;6.17;5.60;;;;;;;18.65;34.49;100353.20;1747493;80;21641;-57
2022/02/24 10:11:23;;;;;;;6.67;6.08;;;;;;;18.66;34.37;100353.06;1749554;80;21056;-55
2022/02/24 10:14:11;;;;;;;6.45;5.78;;;;;;;18.66;34.35;100350.89;1744332;80;21750;-55
2022/02/24 10:16:59;;;;;;;5.85;5.30;;;;;;;18.62;34.42;100349.39;1748835;80;21487;-55
2022/02/24 10:19:45;;;;;;;6.67;6.08;;;;;;;18.55;34.32;100346.25;1742275;80;21488;-55
2022/02/24 10:22:25;;;;;;;6.75;6.17;;;;;;;18.40;34.63;100345.92;1747327;80;21799;-56
2022/02/24 10:25:06;;;;;;;9.08;6.58;;;;;;;18.37;35.03;100338.15;1741619;80;21404;-55
2022/02/24 10:27:38;;;;;;;5.97;5.45;;;;;;;18.58;34.55;100352.72;1703939;82;21558;-56
2022/02/24 10:30:16;;;;;;;7.50;6.67;;;;;;;18.63;34.57;100345.30;1753570;80;21452;-55
2022/02/24 10:32:49;;;;;;;11.03;7.33;;;;;;;18.72;34.50;100349.15;1744811;80;21440;-55
2022/02/24 10:35:30;;;;;;;7.35;6.65;;;;;;;18.65;34.37;100343.39;1737587;80;22100;-54
2022/02/24 10:38:11;;;;;;;6.47;5.92;;;;;;;18.66;34.50;100345.56;1752381;80;21447;-55
2022/02/24 10:40:46;;;;;;;6.58;5.97;;;;;;;18.72;34.37;100344.30;1744149;80;21435;-55
2022/02/24 10:43:36;;;;;;;6.70;5.97;;;;;;;18.68;34.23;100344.53;1749932;80;21543;-55
2022/02/24 10:46:20;;;;;;;6.80;6.12;;;;;;;18.71;34.25;100340.80;1747293;80;21427;-55
2022/02/24 10:48:55;;;;;;;6.62;5.83;;;;;;;18.76;34.42;100345.81;1747841;80;22136;-55
2022/02/24 10:51:31;;;;;;;6.40;5.65;;;;;;;18.66;34.44;100345.56;1751764;80;21542;-55
2022/02/24 10:54:06;;;;;;;6.62;5.97;;;;;;;18.79;34.09;100342.47;1748610;80;21487;-55
2022/02/24 10:56:36;;;;;;;7.47;6.75;;;;;;;18.82;34.10;100342.31;1751423;80;21411;-55
2022/02/24 10:59:03;;;;;;;8.68;6.62;;;;;;;18.78;34.04;100334.58;1750822;80;21415;-55
2022/02/24 11:01:30;;;;;;;9.95;6.50;;;;;;;18.79;33.99;100337.62;1747272;80;21708;-55
2022/02/24 11:04:01;;;;;;;6.50;5.90;;;;;;;18.77;33.76;100334.22;1748231;80;21582;-55
2022/02/24 11:06:36;;;;;;;7.67;6.75;;;;;;;18.77;33.65;100339.05;1751415;80;21550;-55
2022/02/24 11:09:06;;;;;;;7.15;6.28;;;;;;;18.73;33.62;100339.38;1749865;80;21570;-58
2022/02/24 11:11:35;;;;;;;7.45;6.72;;;;;;;18.67;33.66;100343.30;1743613;80;20947;-57
2022/02/24 11:14:08;;;;;;;7.60;6.53;;;;;;;18.64;33.44;100339.00;1748729;80;21501;-58
2022/02/24 11:16:35;;;;;;;7.35;6.60;;;;;;;18.61;33.64;100344.55;1744591;80;21518;-58
2022/02/24 11:19:02;;;;;;;7.35;6.25;;;;;;;18.61;33.77;100339.67;1740586;80;20963;-58
2022/02/24 11:21:31;;;;;;;7.67;6.90;;;;;;;18.72;33.83;100340.31;1753590;80;21492;-61
2022/02/24 11:23:58;;;;;;;7.45;6.67;;;;;;;18.81;33.85;100343.73;1736239;80;21406;-60
2022/02/24 11:26:32;;;;;;;7.47;6.78;;;;;;;18.86;33.64;100342.48;1752328;80;21609;-60
2022/02/24 11:29:17;;;;;;;6.67;6.08;;;;;;;18.83;33.49;100344.00;1744968;80;21415;-59